x

Buoy E01 - Central Maine Shelf (44032) Wave Buoy

8:04 - Fri 24th Oct 2014 All times are EDT. -4 hours from GMT.

  • Sig Wave height 4.9ft
  • Peak Period 11s
  • Wind
    20mph, 25mph gusts
  • Sea Temp 54°f
  • Air Temp 49°f
  • Sea Pressure 1004mb
  • Buoy E01 - Central Maine Shelf
  • Buoy E01 - Central Maine Shelf

More Historic Weather Station data

Upgrade to MSW Pro to gain access to the past 30 days of data for over 8000 Wavebouys and Weather Stations around the globe.

Join Pro

Comparision Forecast

View Surf forecast
   
ven. 10/24 8:04 5ft 11s 20 25 mph 1004mb 54f 49f
7:04 5.5ft 8s 18 22 mph 1003.9mb 54f 50f
6:04 6ft 11s 22 27 mph 1003mb 54f 51f
5:04 7.5ft 11s 20 25 mph 1002.5mb 54f 51f
4:04 6ft 8s 18 22 mph 1002.3mb 54f 51f
3:04 7.5ft 11s 25 31 mph 1002mb 54f 51f
2:04 7ft 11s 22 27 mph 1002.2mb 54f 49f
1:04  -   -  25 29 mph 1002.5mb 54f 49f
12:04 7ft 11s 25 29 mph 1002.8mb 54f 49f
11:04 6.5ft 11s 22 27 mph 1003mb 54f 49f
10:04 7ft 11s 22 31 mph 1002.9mb 54f 50f
9:04 8ft 11s 25 29 mph 1002.9mb 54f 50f
8:04 9ft 11s 25 29 mph 1002.4mb 54f 50f
7:04 9ft 11s 22 27 mph 1002.3mb 54f 51f
6:04 8ft 11s 20 25 mph 1002.2mb 54f 52f
5:04 10ft 11s 22 27 mph 1001.9mb 54f 52f
4:04 9.5ft 11s 25 31 mph 1001.7mb 54f 51f
3:04 8.5ft 11s 25 29 mph 1001.8mb 54f 51f
2:04 11ft 11s 25 31 mph 1002mb 54f 51f
1:04 10.5ft 11s 25 29 mph 1002.6mb 54f 51f
12:04 8.5ft 11s 25 29 mph 1003.1mb 54f 51f
jeu. 10/23 11:04 12ft 11s 29 34 mph 1003.2mb 54f 52f
10:04 10ft 11s 27 34 mph 1003.6mb 54f 53f
9:04 10.5ft 11s 25 29 mph 1004.5mb 54f 53f
8:04 9.5ft 11s 27 31 mph 1004.9mb 54f 53f
7:04 9.5ft 8s 27 34 mph 1005.1mb 54f 53f
6:04 11ft 11s 34 40 mph 1003.8mb 54f 53f
5:04 11.5ft 11s 31 38 mph 1004.2mb 54f 54f
4:04 14ft 11s 27 34 mph 1004.7mb 54f 54f
3:04 12ft 11s 27 34 mph 1005mb 54f 54f
2:04 13.5ft 11s 31 43 mph 1005.5mb 54f 54f
1:04  -   -  36 45 mph 1005mb 54f 54f
12:04 11.5ft 8s 36 45 mph 1005.9mb 54f 54f
11:04 11ft 8s 38 45 mph 1005.9mb 54f 54f
10:04 10ft 11s 34 43 mph 1006.5mb 54f 54f
9:04 12ft 8s 34 40 mph 1006.2mb 54f 53f
8:04 10ft 6s 36 45 mph 1006.5mb 54f 53f
7:04 11ft 11s 36 43 mph 1007.1mb 54f 53f
6:04 12ft 8s 31 40 mph 1008.1mb 55f 53f
5:04 10ft 8s 34 40 mph 1008.7mb 55f 54f
4:04 9ft 8s 31 38 mph 1009.2mb 55f 53f
3:04 10ft 8s 34 40 mph 1010mb 55f 52f
2:04 10ft 8s 31 38 mph 1011.3mb 55f 51f
1:04 11.5ft 11s 34 43 mph 1011.6mb 55f 51f
12:04 11ft 11s 34 40 mph 1012.7mb 55f 51f
mer. 10/22 11:04 8.5ft 6s 31 38 mph 1013.9mb 55f 51f
10:04 12ft 11s 34 40 mph 1014.3mb 55f 51f
9:04 12ft 11s 34 43 mph 1014.6mb 55f 51f
8:04 14ft 11s 36 40 mph 1014.7mb 55f 51f
7:04 14ft 11s 34 40 mph 1015.6mb 55f 51f
6:04 14ft 11s 36 45 mph 1016.1mb 55f 52f
5:04 14ft 11s 34 40 mph 1016.2mb 55f 51f
4:04 14ft 11s 36 45 mph 1015.5mb 55f 51f
3:04 11.5ft 8s 36 43 mph 1015.4mb 55f 51f
2:04 11ft 8s 34 43 mph 1015.3mb 55f 51f
1:04 8.5ft 8s 31 38 mph 1015.8mb 55f 51f
12:04 8.5ft 8s 31 36 mph 1016.3mb 55f 52f
11:04 8.5ft 8s 27 31 mph 1017.2mb 55f 53f
10:04 8.5ft 8s 29 36 mph 1017.2mb 55f 52f
9:04 8.5ft 8s 29 34 mph 1017.6mb 55f 52f
8:04 9ft 8s 27 34 mph 1018.2mb 55f 52f
7:04 8ft 8s 29 36 mph 1017.4mb 55f 53f
6:04 8ft 5s 29 36 mph 1017.7mb 55f 54f
5:04 9ft 6s 29 34 mph 1017.4mb 55f 53f
4:04 8ft 6s 29 36 mph 1017.1mb 55f 53f
3:04 8ft 6s 27 31 mph 1016.8mb 55f 54f
2:04 8ft 6s 29 38 mph 1016.7mb 55f 54f
1:04 7ft 5s 25 34 mph 1016.6mb 55f 54f
12:04 6ft 5s 27 34 mph 1016.5mb 55f 54f
mar. 10/21 11:04 6ft 6s 25 31 mph 1016.3mb 55f 55f
10:04 5ft 6s 20 27 mph 1016mb 55f 55f
9:04 5ft 6s 18 22 mph 1015.7mb 55f 55f
8:04 5ft 6s 18 22 mph 1015.5mb 55f 56f
7:04 4.5ft 8s 16 18 mph 1015.5mb 55f 56f
6:04 2.5ft 5s 16 18 mph 1015.3mb 55f 56f
5:04 2.5ft 4s 11 13 mph 1015.4mb 55f 56f
4:04 2.5ft 4s 16 18 mph 1015.1mb 55f 56f
3:04 2.5ft 4s 13 16 mph 1015.1mb 55f 56f
2:04 2.5ft 4s 11 13 mph 1014.9mb 55f 56f
1:04 2ft 4s 13 16 mph 1015.5mb 55f 56f
12:04 1.6ft 4s 11 13 mph 1016.1mb 55f 55f
11:04 2ft 6s 11 13 mph 1016.6mb 55f 56f
10:04 2ft 6s 11 13 mph 1016.5mb 55f 55f
9:04 2.5ft 5s 11 13 mph 1016.5mb 55f 55f
8:04 2.5ft 5s 9
mph
1016.2mb 55f 54f
7:04 3.5ft 5s 7
mph
1016mb 55f 54f
6:04 3ft 8s 4
mph
1016mb 55f 54f
5:04 3.5ft 5s 2 4 mph 1015.9mb 55f 54f
4:04 2.5ft 5s 7
mph
1015.7mb 55f 54f
3:04 2ft 5s 9
mph
1015.7mb 55f 54f
2:04 2ft 5s 11 13 mph 1015.7mb 55f 55f